Flight Track Log - Related Links

Times and Time Zones

All times are in EDT time to prevent confusion due to time zone crossing. See the CES2391 flight status page for this flight to view local times or setup timezone preferences in your user account.

Time Position Orientation Groundspeed Altitude Reporting Facility
EDT Latitude Longitude Course Direction KTS MPH feet Rate Location/Type
Mon 07:30:00 PM 28.3461 120.1527 305° West  Level Estimated
Mon 07:31:00 PM 28.3941 120.0747 305° West  Level Estimated
Mon 07:32:00 PM 28.4421 119.9966 305° West  Level Estimated
Mon 07:33:00 PM 28.4900 119.9184 305° West  Level Estimated
Mon 07:34:00 PM 28.5378 119.8402 305° West  Level Estimated
Mon 07:35:00 PM 28.5856 119.7618 305° West  Level Estimated
Mon 07:36:00 PM 28.6334 119.6834 305° West  Level Estimated
Mon 07:37:00 PM 28.6811 119.6050 305° West  Level Estimated
Mon 07:38:00 PM 28.7288 119.5264 305° West  Level Estimated
Mon 07:39:00 PM 28.7764 119.4478 305° West  Level Estimated
Mon 07:40:00 PM 28.8240 119.3691 305° West  Level Estimated
Mon 07:41:00 PM 28.8716 119.2904 305° West  Level Estimated
Mon 07:42:00 PM 28.9191 119.2116 305° West  Level Estimated
Mon 07:43:00 PM 28.9665 119.1327 305° West  Level Estimated
Mon 07:44:00 PM 29.0139 119.0537 304° West  Level Estimated
Mon 07:45:00 PM 29.0613 118.9747 304° West  Level Estimated
Mon 07:46:00 PM 29.1086 118.8956 304° West  Level Estimated
Mon 07:47:00 PM 29.1558 118.8164 304° West  Level Estimated
Mon 07:48:00 PM 29.2031 118.7371 304° West  Level Estimated
Mon 07:49:00 PM 29.2502 118.6578 304° West  Level Estimated
Mon 07:50:00 PM 29.2973 118.5784 304° West  Level Estimated
Mon 07:51:00 PM 29.3444 118.4989 304° West  Level Estimated
Mon 07:52:00 PM 29.3915 118.4193 304° West  Level Estimated
Mon 07:53:00 PM 29.4384 118.3397 304° West  Level Estimated
Mon 07:54:00 PM 29.4854 118.2600 304° West  Level Estimated
Mon 07:55:00 PM 29.5322 118.1802 304° West  Level Estimated
Mon 07:56:00 PM 29.5791 118.1004 304° West  Level Estimated
Mon 07:57:00 PM 29.6259 118.0205 304° West  Level Estimated
Mon 07:58:00 PM 29.6726 117.9405 304° West  Level Estimated
Mon 07:59:00 PM 29.7193 117.8604 304° West  Level Estimated
Mon 08:00:00 PM 29.7660 117.7802 304° West  Level Estimated
Mon 08:01:00 PM 29.8126 117.7000 304° West  Level Estimated
Mon 08:02:00 PM 29.8591 117.6197 304° West  Level Estimated
Mon 08:03:00 PM 29.9056 117.5394 304° West  Level Estimated
Mon 08:04:00 PM 29.9521 117.4589 304° West  Level Estimated
Mon 08:05:00 PM 29.9985 117.3784 304° West  Level Estimated
Mon 08:06:00 PM 30.0448 117.2978 304° West  Level Estimated
Mon 08:07:00 PM 30.0911 117.2171 304° West  Level Estimated
Mon 08:08:00 PM 30.1374 117.1364 304° West  Level Estimated
Mon 08:09:00 PM 30.1836 117.0556 303° West  Level Estimated
Mon 08:10:00 PM 30.2297 116.9747 303° West  Level Estimated
Mon 08:11:00 PM 30.2759 116.8937 303° West  Level Estimated
Mon 08:12:00 PM 30.3219 116.8126 303° West  Level Estimated
Mon 08:13:00 PM 30.3679 116.7315 303° West  Level Estimated
Mon 08:14:00 PM 30.4139 116.6503 303° West  Level Estimated
Mon 08:15:00 PM 30.4598 116.5690 303° West  Level Estimated
Mon 08:16:00 PM 30.5057 116.4877 303° West  Level Estimated
Mon 08:17:00 PM 30.5515 116.4062 303° West  Level Estimated
Mon 08:18:00 PM 30.5972 116.3247 303° West  Level Estimated
Mon 08:19:00 PM 30.6429 116.2431 303° West  Level Estimated
Mon 08:20:00 PM 30.6886 116.1615 303° West  Level Estimated
Mon 08:21:00 PM 30.7342 116.0797 303° West  Level Estimated
Mon 08:22:00 PM 30.7797 115.9979 303° West  Level Estimated
Mon 08:23:00 PM 30.8252 115.9160 303° West  Level Estimated
Mon 08:24:00 PM 30.8707 115.8341 303° West  Level Estimated
Mon 08:25:00 PM 30.9161 115.7520 303° West  Level Estimated
Mon 08:26:00 PM 30.9614 115.6699 303° West  Level Estimated
Mon 08:27:00 PM 31.0067 115.5877 303° West  Level Estimated
Mon 08:28:00 PM 31.0519 115.5054 303° West  Level Estimated
Mon 08:29:00 PM 31.0971 115.4230 303° West  Level Estimated
Mon 08:30:00 PM 31.1423 115.3406 303° West  Level Estimated
Mon 08:31:00 PM 31.1873 115.2581 303° West  Level Estimated
Mon 08:32:00 PM 31.2324 115.1755 303° West  Level Estimated
Mon 08:33:00 PM 31.2774 115.0928 302° West  Level Estimated
Mon 08:34:00 PM 31.3223 115.0100 302° West  Level Estimated
Mon 08:35:00 PM 31.3671 114.9272 302° West  Level Estimated
Mon 08:36:00 PM 31.4120 114.8443 302° West  Level Estimated
Mon 08:37:00 PM 31.4567 114.7613 302° West  Level Estimated
Mon 08:38:00 PM 31.5014 114.6782 302° West  Level Estimated
Mon 08:39:00 PM 31.5461 114.5951 302° West  Level Estimated
Mon 08:40:00 PM 31.5907 114.5118 302° West  Level Estimated
Mon 08:41:00 PM 31.6353 114.4285 302° West  Level Estimated
Mon 08:42:00 PM 31.6798 114.3451 302° West  Level Estimated
Mon 08:43:00 PM 31.7242 114.2617 302° West  Level Estimated
Mon 08:44:00 PM 31.7686 114.1781 302° West  Level Estimated
Mon 08:45:00 PM 31.8129 114.0945 302° West  Level Estimated
Mon 08:46:00 PM 31.8572 114.0108 302° West  Level Estimated
Mon 08:47:00 PM 31.9014 113.9270 302° West  Level Estimated
Mon 08:48:00 PM 31.9456 113.8431 302° West  Level Estimated
Mon 08:49:00 PM 31.9897 113.7592 302° West  Level Estimated
Mon 08:50:00 PM 32.0337 113.6751 302° West  Level Estimated
Mon 08:51:00 PM 32.0778 113.5910 302° West  Level Estimated
Mon 08:52:00 PM 32.1217 113.5068 302° West  Level Estimated
Mon 08:53:00 PM 32.1656 113.4225 302° West  Level Estimated
Mon 08:54:00 PM 32.2094 113.3382 302° West  Level Estimated
Mon 08:55:00 PM 32.2532 113.2538 302° West  Level Estimated
Mon 08:56:00 PM 32.2969 113.1692 301° West  Level Estimated
Mon 08:57:00 PM 32.3406 113.0846 301° West  Level Estimated
Mon 08:58:00 PM 32.3842 112.9999 301° West  Level Estimated
Mon 08:59:00 PM 32.4277 112.9152 301° West  Level Estimated
Mon 09:00:00 PM 32.4712 112.8303 301° West  Level Estimated
Mon 09:01:00 PM 32.5147 112.7454 301° West  Level Estimated
Mon 09:02:00 PM 32.5581 112.6604 301° West  Level Estimated
Mon 09:03:00 PM 32.6014 112.5753 301° West  Level Estimated
Mon 09:04:00 PM 32.6447 112.4901 301° West  Level Estimated
Mon 09:05:00 PM 32.6879 112.4049 301° West  Level Estimated
Mon 09:06:00 PM 32.7310 112.3195 301° West  Level Estimated
Mon 09:07:00 PM 32.7741 112.2341 301° West  Level Estimated
Mon 09:08:00 PM 32.8172 112.1486 301° West  Level Estimated
Mon 09:09:00 PM 32.8601 112.0630 301° West  Level Estimated
Mon 09:10:00 PM 32.9030 111.9773 301° West  Level Estimated
Mon 09:11:00 PM 32.9459 111.8916 301° West  Level Estimated
Mon 09:12:00 PM 32.9887 111.8057 301° West  Level Estimated
Mon 09:13:00 PM 33.0314 111.7198 301° West  Level Estimated
Mon 09:14:00 PM 33.0741 111.6338 301° West  Level Estimated
Mon 09:15:00 PM 33.1167 111.5477 301° West  Level Estimated
Mon 09:16:00 PM 33.1593 111.4616 301° West  Level Estimated
Mon 09:17:00 PM 33.2018 111.3753 301° West  Level Estimated
Mon 09:18:00 PM 33.2443 111.2890 300° West  Level Estimated
Mon 09:19:00 PM 33.2867 111.2026 300° West  Level Estimated
Mon 09:20:00 PM 33.3290 111.1160 300° West  Level Estimated
Mon 09:21:00 PM 33.3713 111.0294 300° West  Level Estimated
Mon 09:22:00 PM 33.4135 110.9428 300° West  Level Estimated
Mon 09:23:00 PM 33.4556 110.8560 300° West  Level Estimated
Mon 09:24:00 PM 33.4977 110.7692 300° West  Level Estimated
Mon 09:25:00 PM 33.5397 110.6823 300° West  Level Estimated
Mon 09:26:00 PM 33.5817 110.5952 300° West  Level Estimated
Mon 09:27:00 PM 33.6236 110.5081 300° West  Level Estimated
Mon 09:28:00 PM 33.6654 110.4210 300° West  Level Estimated
Mon 09:29:00 PM 33.7072 110.3337 300° West  Level Estimated
Mon 09:30:00 PM 33.7489 110.2463 300° West  Level Estimated
Mon 09:31:00 PM 33.7906 110.1589 300° West  Level Estimated
Mon 09:32:00 PM 33.8322 110.0714 300° West  Level Estimated
Mon 09:33:00 PM 33.8737 109.9838 300° West  Level Estimated
Mon 09:34:00 PM 33.9152 109.8961 300° West  Level Estimated
Mon 09:35:00 PM 33.9600 109.8011 300° West  Level Estimated
Mon 09:36:00 PM 34.0047 109.7061 300° West  Level Estimated
Mon 09:37:00 PM 34.0493 109.6110 300° West  Level Estimated
Mon 09:38:00 PM 34.0939 109.5158 299° West  Level Estimated
Mon 09:39:00 PM 34.1384 109.4204 299° West  Level Estimated
Mon 09:40:00 PM 34.1828 109.3250 299° West  Level Estimated
Mon 09:41:00 PM 34.2271 109.2295 299° West  Level Estimated
Mon 09:42:00 PM 34.2714 109.1338 299° West  Level Estimated
Mon 09:43:00 PM 34.3156 109.0381 299° West  Level Estimated
Mon 09:44:00 PM 34.3597 108.9423 299° West  Level Estimated
Mon 09:45:00 PM 34.4038 108.8463 299° West  Level Estimated
Mon 09:46:00 PM 34.4471 108.7516 299° West  Level Estimated
Mon 09:47:00 PM 34.4471 108.7516 121° Southeast  Level Estimated
Mon 09:48:00 PM 34.4471 108.7516 121° Southeast  Level Estimated
Mon 09:49:00 PM 34.4471 108.7516 121° Southeast  Level Estimated
Mon 09:50:00 PM 34.4471 108.7516 121° Southeast  Level Estimated
Mon 09:51:00 PM 34.4471 108.7516 121° Southeast  Level Estimated
Mon 09:52:00 PM 34.4471 108.7516 121° Southeast  Level Estimated

Login

Don't have an account? Register now (free) for customized features, flight alerts, and more!